createdAt,value
2018-03-16T00:01:16.407Z,30.93
2018-03-16T00:03:43.978Z,37.53
2018-03-16T00:06:11.542Z,43.87
2018-03-16T00:08:39.119Z,36.00
2018-03-16T00:11:06.864Z,34.87
2018-03-16T00:13:34.581Z,27.30
2018-03-16T00:16:02.156Z,23.07
2018-03-16T00:18:29.709Z,23.57
2018-03-16T00:20:57.437Z,13.50
2018-03-16T00:23:25.157Z,13.17
2018-03-16T00:25:52.726Z,15.53
2018-03-16T00:28:20.290Z,13.17
2018-03-16T00:30:47.870Z,16.43
2018-03-16T00:33:15.426Z,14.57
2018-03-16T00:35:43.248Z,14.63
2018-03-16T00:38:10.810Z,13.17
2018-03-16T00:40:38.582Z,18.97
2018-03-16T00:43:06.149Z,15.03
2018-03-16T00:45:33.717Z,11.33
2018-03-16T00:48:01.296Z,17.97
2018-03-16T00:50:29.054Z,21.53
2018-03-16T00:52:56.696Z,17.97
2018-03-16T00:55:24.492Z,16.73
2018-03-16T00:57:52.078Z,16.73
2018-03-16T01:00:19.648Z,16.83
2018-03-16T01:02:47.335Z,15.07
2018-03-16T01:05:15.060Z,14.97
2018-03-16T01:07:42.670Z,13.63
2018-03-16T01:10:10.243Z,15.73
2018-03-16T01:12:37.813Z,19.43
2018-03-16T01:15:05.385Z,16.13
2018-03-16T01:17:32.942Z,16.10
2018-03-16T01:20:00.513Z,18.13
2018-03-16T01:22:28.076Z,16.87
2018-03-16T01:24:55.694Z,17.20
2018-03-16T01:27:23.264Z,18.50
2018-03-16T01:29:50.938Z,13.97
2018-03-16T01:32:18.536Z,16.03
2018-03-16T01:34:46.199Z,18.87
2018-03-16T01:37:13.992Z,11.50
2018-03-16T01:39:41.541Z,15.40
2018-03-16T01:42:09.115Z,16.23
2018-03-16T01:44:36.674Z,17.93
2018-03-16T01:47:04.254Z,21.53
2018-03-16T01:49:31.893Z,24.20
2018-03-16T01:51:59.450Z,23.20
2018-03-16T01:54:27.219Z,24.03
2018-03-16T01:56:54.775Z,23.70
2018-03-16T01:59:22.520Z,25.47
2018-03-16T02:01:50.242Z,24.50
2018-03-16T02:04:17.969Z,23.00
2018-03-16T02:06:45.712Z,25.50
2018-03-16T02:09:13.267Z,22.00
2018-03-16T02:11:40.838Z,25.60
2018-03-16T02:14:08.553Z,24.40
2018-03-16T02:16:36.161Z,22.57
2018-03-16T02:19:03.879Z,19.93
2018-03-16T02:21:31.454Z,21.10
2018-03-16T02:23:59.014Z,20.23
2018-03-16T02:26:26.757Z,18.23
2018-03-16T02:28:54.322Z,17.87
2018-03-16T02:31:21.895Z,25.20
2018-03-16T02:33:49.465Z,21.20
2018-03-16T02:36:17.192Z,16.63
2018-03-16T02:38:44.942Z,24.63
2018-03-16T02:41:12.527Z,20.43
2018-03-16T02:43:40.247Z,21.60
2018-03-16T02:46:07.826Z,24.80
2018-03-16T02:48:35.615Z,22.73
2018-03-16T02:51:03.435Z,30.77
2018-03-16T02:53:31.252Z,27.60
2018-03-16T02:55:59.069Z,29.83
2018-03-16T02:58:26.621Z,31.33
2018-03-16T03:00:54.294Z,32.13
2018-03-16T03:03:21.888Z,27.67
2018-03-16T03:05:49.642Z,26.63
2018-03-16T03:08:17.214Z,29.77
2018-03-16T03:10:44.780Z,39.00
2018-03-16T03:13:12.596Z,42.73
2018-03-16T03:15:40.237Z,31.13
2018-03-16T03:18:07.812Z,32.53
2018-03-16T03:20:35.553Z,29.80
2018-03-16T03:23:03.369Z,26.73
2018-03-16T03:25:30.940Z,47.63
2018-03-16T03:27:58.497Z,47.23
2018-03-16T03:30:26.223Z,36.17
2018-03-16T03:32:54.042Z,31.23
2018-03-16T03:35:21.598Z,28.77
2018-03-16T03:37:49.380Z,29.43
2018-03-16T03:40:16.946Z,32.47
2018-03-16T03:42:44.510Z,32.33
2018-03-16T03:45:12.233Z,34.40
2018-03-16T03:47:39.805Z,48.30
2018-03-16T03:50:07.362Z,42.53
2018-03-16T03:52:35.185Z,32.97
2018-03-16T03:55:02.742Z,31.40
2018-03-16T03:57:30.306Z,32.90
2018-03-16T03:59:57.890Z,33.53
2018-03-16T04:02:25.525Z,31.93
2018-03-16T04:04:53.374Z,39.10
2018-03-16T04:07:20.929Z,28.47
2018-03-16T04:09:48.496Z,28.00
2018-03-16T04:12:16.054Z,34.83
2018-03-16T04:14:43.622Z,32.97
2018-03-16T04:17:11.174Z,31.27
2018-03-16T04:19:38.766Z,31.23
2018-03-16T04:22:06.338Z,24.43
2018-03-16T04:24:34.118Z,26.43
2018-03-16T04:27:01.673Z,25.07
2018-03-16T04:29:29.283Z,31.07
2018-03-16T04:31:57.072Z,31.60
2018-03-16T04:34:24.991Z,34.10
2018-03-16T04:36:52.551Z,29.93
2018-03-16T04:39:20.327Z,35.03
2018-03-16T04:41:47.895Z,32.13
2018-03-16T04:44:15.666Z,32.60
2018-03-16T04:46:43.274Z,35.93
2018-03-16T04:49:10.838Z,35.90
2018-03-16T04:51:38.462Z,34.57
2018-03-16T04:54:06.208Z,37.80
2018-03-16T04:56:33.773Z,34.03
2018-03-16T04:59:01.346Z,32.17
2018-03-16T05:01:28.906Z,38.37
2018-03-16T05:03:56.707Z,37.97
2018-03-16T05:06:24.271Z,39.00
2018-03-16T05:08:51.924Z,43.97
2018-03-16T05:11:19.480Z,40.37
2018-03-16T05:13:47.100Z,54.07
2018-03-16T05:16:14.896Z,46.40
2018-03-16T05:18:42.474Z,55.20
2018-03-16T05:21:10.050Z,51.87
2018-03-16T05:23:37.610Z,54.30
2018-03-16T05:26:05.286Z,54.50
2018-03-16T05:28:32.842Z,47.27
2018-03-16T05:31:00.409Z,43.67
2018-03-16T05:33:27.987Z,46.60
2018-03-16T05:35:55.586Z,43.33
2018-03-16T05:38:23.251Z,50.73
2018-03-16T05:40:50.854Z,43.17
2018-03-16T05:43:18.423Z,59.87
2018-03-16T05:45:46.311Z,51.37
2018-03-16T05:48:14.130Z,47.20
2018-03-16T05:50:41.695Z,43.83
2018-03-16T05:53:09.315Z,47.20
2018-03-16T05:55:36.882Z,54.40
2018-03-16T05:58:04.479Z,46.93
2018-03-16T06:00:32.078Z,56.10
2018-03-16T06:02:59.638Z,45.97
2018-03-16T06:05:27.444Z,44.63
2018-03-16T06:07:55.064Z,43.73
2018-03-16T06:10:22.792Z,46.80
2018-03-16T06:12:50.350Z,49.13
2018-03-16T06:15:18.095Z,54.93
2018-03-16T06:17:45.812Z,62.00
2018-03-16T06:20:13.445Z,61.00
2018-03-16T06:22:41.060Z,65.00
2018-03-16T06:25:08.682Z,57.10
2018-03-16T06:27:36.257Z,64.67
2018-03-16T06:30:03.899Z,58.87
2018-03-16T06:32:31.477Z,56.70
2018-03-16T06:34:59.043Z,65.87
2018-03-16T06:37:26.889Z,78.00
2018-03-16T06:39:54.455Z,84.90
2018-03-16T06:42:22.201Z,70.50
2018-03-16T06:44:49.912Z,69.00
2018-03-16T06:47:17.763Z,49.83
2018-03-16T06:49:45.338Z,53.07
2018-03-16T06:52:13.071Z,48.10
2018-03-16T06:54:40.817Z,64.67
2018-03-16T06:57:08.402Z,63.53
2018-03-16T06:59:36.026Z,94.00
2018-03-16T07:02:03.865Z,96.70
2018-03-16T07:04:31.432Z,72.30
2018-03-16T07:07:00.011Z,73.27
2018-03-16T07:09:27.829Z,69.03
2018-03-16T07:11:55.438Z,91.07
2018-03-16T07:14:22.994Z,80.93
2018-03-16T07:16:50.675Z,57.70
2018-03-16T07:19:18.504Z,59.57
2018-03-16T07:21:46.151Z,58.63
2018-03-16T07:24:13.741Z,68.90
2018-03-16T07:26:41.313Z,57.07
2018-03-16T07:29:08.894Z,69.93
2018-03-16T07:31:36.458Z,59.67
2018-03-16T07:34:04.045Z,43.87
2018-03-16T07:36:31.606Z,56.90
2018-03-16T07:38:59.178Z,56.50
2018-03-16T07:41:26.962Z,51.50
2018-03-16T07:43:54.578Z,51.57
2018-03-16T07:46:22.308Z,50.80
2018-03-16T07:48:49.907Z,59.53
2018-03-16T07:51:17.717Z,118.00
2018-03-16T07:53:45.273Z,98.27
2018-03-16T07:56:13.079Z,90.23
2018-03-16T07:58:40.679Z,58.30
2018-03-16T08:01:08.417Z,46.23
2018-03-16T08:03:35.997Z,53.43
2018-03-16T08:06:03.844Z,46.83
2018-03-16T08:08:31.414Z,49.90
2018-03-16T08:10:58.978Z,45.10
2018-03-16T08:13:26.798Z,37.77
2018-03-16T08:15:54.407Z,51.67
2018-03-16T08:18:22.219Z,48.93
2018-03-16T08:20:49.814Z,41.23
2018-03-16T08:23:17.412Z,33.90
2018-03-16T08:25:45.005Z,40.27
2018-03-16T08:28:12.572Z,59.67
2018-03-16T08:30:40.378Z,41.37
2018-03-16T08:33:08.245Z,50.00
2018-03-16T08:35:35.813Z,54.53
2018-03-16T08:38:03.394Z,52.70
2018-03-16T08:40:30.978Z,42.67
2018-03-16T08:42:58.554Z,67.73
2018-03-16T08:45:26.148Z,65.53
2018-03-16T08:47:53.740Z,75.67
2018-03-16T08:50:21.326Z,70.93
2018-03-16T08:52:48.987Z,54.27
2018-03-16T08:55:16.553Z,61.70
2018-03-16T08:57:44.123Z,17.80
2018-03-16T09:00:11.729Z,21.83
2018-03-16T09:02:39.358Z,22.53
2018-03-16T09:05:06.954Z,12.47
2018-03-16T09:07:34.692Z,10.03
2018-03-16T09:10:02.412Z,7.73
2018-03-16T09:12:30.059Z,6.73
2018-03-16T09:14:57.749Z,5.97
2018-03-16T09:17:25.318Z,8.63
2018-03-16T09:19:53.085Z,60.67
2018-03-16T09:22:20.678Z,8.40
2018-03-16T09:24:48.255Z,13.57
2018-03-16T09:27:16.137Z,9.13
2018-03-16T09:29:43.749Z,16.13
2018-03-16T09:32:11.369Z,11.47
2018-03-16T09:34:38.930Z,9.90
2018-03-16T09:37:06.563Z,11.00
2018-03-16T09:39:34.327Z,7.83
2018-03-16T09:42:02.146Z,6.10
2018-03-16T09:44:29.726Z,48.90
2018-03-16T09:46:57.304Z,16.03
2018-03-16T09:49:25.102Z,9.97
2018-03-16T09:51:52.682Z,8.43
2018-03-16T09:54:20.327Z,13.20
2018-03-16T09:56:47.899Z,8.73
2018-03-16T09:59:15.469Z,10.80
2018-03-16T10:01:43.038Z,7.37
2018-03-16T10:04:10.618Z,8.00
2018-03-16T10:06:38.265Z,5.30
2018-03-16T10:09:05.882Z,4.90
2018-03-16T10:11:33.442Z,6.00
2018-03-16T10:14:01.010Z,4.30
2018-03-16T10:16:28.800Z,5.30
2018-03-16T10:18:56.591Z,5.50
2018-03-16T10:21:24.308Z,4.67
2018-03-16T10:23:52.147Z,4.07
2018-03-16T10:26:19.718Z,4.70
2018-03-16T10:28:47.279Z,4.17
2018-03-16T10:31:14.872Z,4.70
2018-03-16T10:33:42.430Z,4.17
2018-03-16T10:36:09.992Z,4.60
2018-03-16T10:38:37.545Z,5.30
2018-03-16T10:41:05.381Z,4.17
2018-03-16T10:43:32.938Z,4.90
2018-03-16T10:46:00.504Z,3.20
2018-03-16T10:48:28.101Z,6.77
2018-03-16T10:50:55.693Z,2.97
2018-03-16T10:53:23.467Z,2.80
2018-03-16T10:55:51.288Z,3.13
2018-03-16T10:58:19.002Z,4.17
2018-03-16T11:00:52.006Z,3.50
2018-03-16T11:03:19.738Z,5.03
2018-03-16T11:05:52.727Z,5.20
2018-03-16T11:08:25.848Z,6.67
2018-03-16T11:10:53.442Z,8.30
2018-03-16T11:13:21.006Z,6.40
2018-03-16T11:15:48.571Z,5.10
2018-03-16T11:18:16.303Z,4.20
2018-03-16T11:20:44.125Z,3.73
2018-03-16T11:23:11.841Z,7.43
2018-03-16T11:25:39.464Z,7.27
2018-03-16T11:28:07.050Z,5.00
2018-03-16T11:30:34.798Z,7.77
2018-03-16T11:33:02.614Z,6.23
2018-03-16T11:35:30.180Z,5.00
2018-03-16T11:37:57.770Z,9.20
2018-03-16T11:40:25.348Z,6.77
2018-03-16T11:42:52.977Z,8.53
2018-03-16T11:45:20.696Z,6.77
2018-03-16T11:47:48.253Z,10.43
2018-03-16T11:50:15.922Z,5.70
2018-03-16T11:52:43.494Z,7.23
2018-03-16T11:55:11.246Z,2.97
2018-03-16T11:57:38.962Z,9.83
2018-03-16T12:00:06.753Z,6.07
2018-03-16T12:02:34.530Z,4.03
2018-03-16T12:05:02.102Z,3.97
2018-03-16T12:07:29.885Z,3.43
2018-03-16T12:09:57.687Z,5.13
2018-03-16T12:12:25.346Z,6.00
2018-03-16T12:14:52.900Z,5.67
2018-03-16T12:17:20.530Z,6.67
2018-03-16T12:19:48.357Z,5.13
2018-03-16T12:22:16.484Z,4.87
2018-03-16T12:24:44.281Z,8.10
2018-03-16T12:27:12.014Z,4.20
2018-03-16T12:29:39.583Z,6.93
2018-03-16T12:32:07.351Z,3.77
2018-03-16T12:34:35.202Z,4.03
2018-03-16T12:37:03.006Z,6.30
2018-03-16T12:39:30.581Z,4.40
2018-03-16T12:41:58.202Z,5.33
2018-03-16T12:44:25.823Z,6.60
2018-03-16T12:46:53.413Z,4.67
2018-03-16T12:49:21.177Z,7.40
2018-03-16T12:51:48.755Z,7.80
2018-03-16T12:54:16.515Z,5.17
2018-03-16T12:56:44.126Z,8.53
2018-03-16T12:59:11.680Z,3.40
2018-03-16T13:01:39.359Z,8.60
2018-03-16T13:04:07.186Z,5.53
2018-03-16T13:06:34.751Z,10.50
2018-03-16T13:09:02.517Z,7.00
2018-03-16T13:11:30.213Z,5.23
2018-03-16T13:13:57.791Z,7.27
2018-03-16T13:16:25.584Z,4.87
2018-03-16T13:18:53.239Z,5.93
2018-03-16T13:21:20.806Z,5.83
2018-03-16T13:23:48.531Z,7.13
2018-03-16T13:26:16.119Z,5.70
2018-03-16T13:28:43.675Z,6.30
2018-03-16T13:31:11.298Z,8.63
2018-03-16T13:33:39.106Z,8.80
2018-03-16T13:36:06.922Z,8.00
2018-03-16T13:38:34.740Z,10.23
2018-03-16T13:41:02.388Z,6.33
2018-03-16T13:43:30.177Z,8.27
2018-03-16T13:45:57.752Z,5.80
2018-03-16T13:48:25.487Z,5.40
2018-03-16T13:50:53.046Z,8.83
2018-03-16T13:53:20.614Z,10.97
2018-03-16T13:55:48.367Z,5.70
2018-03-16T13:58:16.097Z,4.70
2018-03-16T14:00:43.672Z,8.23
2018-03-16T14:03:12.382Z,8.27
2018-03-16T14:05:39.950Z,7.30
2018-03-16T14:08:07.551Z,35.40
2018-03-16T14:10:35.238Z,22.90
2018-03-16T14:13:02.814Z,5.30
2018-03-16T14:15:30.615Z,4.63
2018-03-16T14:17:58.223Z,6.97
2018-03-16T14:20:25.794Z,3.70
2018-03-16T14:22:53.358Z,4.50
2018-03-16T14:25:21.066Z,8.73
2018-03-16T14:27:48.631Z,4.17
2018-03-16T14:30:16.457Z,5.70
2018-03-16T14:32:44.243Z,7.93
2018-03-16T14:35:12.059Z,8.90
2018-03-16T14:37:39.635Z,7.13
2018-03-16T14:40:07.289Z,6.33
2018-03-16T14:42:34.866Z,7.60
2018-03-16T14:45:02.427Z,3.73
2018-03-16T14:47:29.986Z,3.37
2018-03-16T14:49:57.559Z,4.77
2018-03-16T14:52:25.284Z,3.93
2018-03-16T14:54:53.106Z,7.27
2018-03-16T14:57:20.714Z,4.80
2018-03-16T14:59:48.539Z,6.93
2018-03-16T15:02:16.271Z,5.13
2018-03-16T15:04:44.076Z,8.13
2018-03-16T15:07:11.866Z,12.33
2018-03-16T15:09:39.583Z,5.97
2018-03-16T15:12:07.150Z,6.47
2018-03-16T15:14:34.735Z,6.57
2018-03-16T15:17:02.391Z,6.50
2018-03-16T15:19:29.967Z,5.37
2018-03-16T15:21:57.596Z,7.33
2018-03-16T15:24:25.159Z,5.27
2018-03-16T15:26:52.764Z,4.70
2018-03-16T15:29:20.448Z,9.37
2018-03-16T15:31:48.007Z,5.40
2018-03-16T15:34:15.582Z,8.77
2018-03-16T15:36:43.313Z,7.70
2018-03-16T15:39:10.878Z,8.53
2018-03-16T15:41:38.446Z,6.53
2018-03-16T15:44:06.082Z,4.87
2018-03-16T15:46:33.882Z,5.10
2018-03-16T15:49:01.476Z,5.80
2018-03-16T15:51:29.046Z,4.53
2018-03-16T15:53:56.602Z,11.30
2018-03-16T15:56:24.178Z,7.73
2018-03-16T15:58:51.744Z,6.17
2018-03-16T16:01:19.491Z,12.50
2018-03-16T16:03:47.075Z,6.50
2018-03-16T16:06:14.889Z,9.73
2018-03-16T16:08:42.441Z,8.53
2018-03-16T16:11:10.054Z,7.63
2018-03-16T16:13:37.632Z,8.07
2018-03-16T16:16:05.287Z,6.17
2018-03-16T16:18:33.015Z,6.20
2018-03-16T16:21:00.836Z,9.53
2018-03-16T16:23:28.447Z,4.17
2018-03-16T16:25:56.014Z,6.27
2018-03-16T16:28:23.590Z,5.50
2018-03-16T16:30:51.192Z,6.10
2018-03-16T16:33:18.752Z,6.63
2018-03-16T16:35:46.332Z,5.17
2018-03-16T16:38:13.899Z,4.60
2018-03-16T16:40:41.468Z,5.20
2018-03-16T16:43:09.026Z,8.40
2018-03-16T16:45:36.813Z,11.23
2018-03-16T16:48:04.391Z,39.53
2018-03-16T16:50:32.008Z,9.90
2018-03-16T16:52:59.576Z,10.57
2018-03-16T16:55:27.134Z,9.63
2018-03-16T16:57:54.717Z,7.37
2018-03-16T17:00:22.520Z,7.23
2018-03-16T17:02:50.086Z,8.00
2018-03-16T17:05:17.643Z,8.57
2018-03-16T17:07:45.215Z,4.37
2018-03-16T17:10:12.972Z,5.77
2018-03-16T17:12:40.687Z,10.63
2018-03-16T17:15:08.432Z,10.27
2018-03-16T17:17:36.056Z,12.90
2018-03-16T17:20:03.865Z,11.80
2018-03-16T17:22:31.436Z,10.07
2018-03-16T17:24:59.000Z,8.67
2018-03-16T17:27:26.740Z,8.80
2018-03-16T17:29:54.312Z,4.50
2018-03-16T17:32:24.334Z,7.13
2018-03-16T17:34:49.897Z,13.57
2018-03-16T17:37:18.351Z,15.77
2018-03-16T17:39:46.115Z,27.80
2018-03-16T17:42:13.931Z,16.50
2018-03-16T17:44:41.755Z,23.43
2018-03-16T17:47:09.322Z,7.00
2018-03-16T17:49:37.086Z,11.27
2018-03-16T17:52:04.774Z,7.07
2018-03-16T17:54:32.338Z,14.03
2018-03-16T17:57:00.142Z,19.40
2018-03-16T17:59:27.750Z,9.77
2018-03-16T18:01:55.308Z,9.77
2018-03-16T18:04:22.985Z,12.57
2018-03-16T18:06:50.562Z,5.17
2018-03-16T18:09:18.331Z,7.80
2018-03-16T18:11:45.933Z,6.33
2018-03-16T18:14:13.767Z,6.03
2018-03-16T18:16:41.322Z,6.00
2018-03-16T18:19:08.996Z,9.83
2018-03-16T18:21:36.721Z,9.43
2018-03-16T18:24:04.318Z,4.57
2018-03-16T18:26:31.902Z,5.60
2018-03-16T18:28:59.649Z,5.20
2018-03-16T18:31:27.237Z,8.70
2018-03-16T18:33:54.902Z,8.73
2018-03-16T18:36:22.471Z,7.73
2018-03-16T18:38:50.032Z,7.27
2018-03-16T18:41:17.835Z,8.20
2018-03-16T18:43:45.413Z,5.23
2018-03-16T18:46:13.201Z,6.13
2018-03-16T18:48:40.770Z,5.63
2018-03-16T18:51:08.455Z,7.87
2018-03-16T18:53:36.256Z,18.27
2018-03-16T18:56:04.074Z,8.67
2018-03-16T18:58:31.659Z,12.97
2018-03-16T19:00:59.238Z,12.00
2018-03-16T19:03:27.128Z,22.40
2018-03-16T19:05:54.865Z,14.43
2018-03-16T19:08:22.490Z,11.93
2018-03-16T19:10:50.284Z,10.80
2018-03-16T19:13:18.102Z,7.03
2018-03-16T19:15:45.921Z,11.40
2018-03-16T19:18:13.490Z,17.93
2018-03-16T19:20:41.246Z,15.40
2018-03-16T19:23:08.975Z,12.50
2018-03-16T19:25:36.595Z,57.13
2018-03-16T19:28:04.222Z,37.63
2018-03-16T19:30:31.795Z,17.30
2018-03-16T19:32:59.547Z,13.70
2018-03-16T19:35:27.813Z,16.37
2018-03-16T19:37:55.736Z,11.70
2018-03-16T19:40:23.505Z,11.43
2018-03-16T19:42:51.066Z,12.20
2018-03-16T19:45:18.626Z,8.17
2018-03-16T19:47:46.458Z,15.30
2018-03-16T19:50:14.023Z,9.83
2018-03-16T19:52:41.675Z,8.77
2018-03-16T19:55:09.382Z,8.23
2018-03-16T19:57:36.983Z,5.47
2018-03-16T20:00:04.760Z,5.20
2018-03-16T20:02:32.569Z,8.30
2018-03-16T20:05:00.387Z,7.03
2018-03-16T20:07:28.206Z,5.93
2018-03-16T20:09:56.842Z,6.20
2018-03-16T20:12:24.797Z,10.17
2018-03-16T20:14:52.351Z,7.80
2018-03-16T20:17:20.053Z,8.70
2018-03-16T20:19:47.611Z,7.73
2018-03-16T20:22:15.210Z,5.03
2018-03-16T20:24:42.764Z,6.93
2018-03-16T20:27:10.365Z,15.63
2018-03-16T20:29:37.938Z,14.47
2018-03-16T20:32:05.518Z,25.30
2018-03-16T20:34:33.198Z,17.67
2018-03-16T20:37:01.025Z,16.03
2018-03-16T20:39:28.843Z,22.40
2018-03-16T20:41:56.462Z,24.00
2018-03-16T20:44:24.281Z,9.40
2018-03-16T20:46:52.099Z,13.13
2018-03-16T20:49:19.666Z,10.73
2018-03-16T20:51:47.334Z,15.83
2018-03-16T20:54:15.153Z,23.60
2018-03-16T20:56:42.943Z,20.60
2018-03-16T20:59:10.510Z,18.00
2018-03-16T21:01:38.365Z,31.27
2018-03-16T21:04:05.976Z,9.10
2018-03-16T21:06:33.626Z,32.33
2018-03-16T21:09:01.194Z,9.63
2018-03-16T21:11:28.777Z,11.17
2018-03-16T21:13:56.600Z,23.10
2018-03-16T21:16:24.417Z,9.13
2018-03-16T21:18:51.976Z,9.37
2018-03-16T21:21:19.576Z,13.10
2018-03-16T21:23:47.291Z,7.80
2018-03-16T21:26:15.092Z,7.73
2018-03-16T21:28:42.907Z,8.53
2018-03-16T21:31:10.479Z,12.13
2018-03-16T21:33:38.055Z,11.27
2018-03-16T21:36:05.648Z,12.33
2018-03-16T21:38:33.479Z,8.67
2018-03-16T21:41:01.045Z,5.40
2018-03-16T21:43:28.708Z,9.80
2018-03-16T21:45:56.266Z,8.97
2018-03-16T21:48:23.826Z,10.33
2018-03-16T21:50:51.410Z,6.83
2018-03-16T21:53:19.187Z,6.97
2018-03-16T21:55:46.787Z,6.53
2018-03-16T21:58:14.523Z,8.03
2018-03-16T22:00:42.348Z,7.50
2018-03-16T22:03:09.918Z,8.03
2018-03-16T22:05:37.474Z,7.87
2018-03-16T22:08:05.123Z,7.07
2018-03-16T22:10:32.689Z,9.73
2018-03-16T22:13:00.291Z,7.30
2018-03-16T22:15:28.049Z,7.53
2018-03-16T22:17:55.606Z,7.70
2018-03-16T22:20:23.171Z,9.40
2018-03-16T22:22:50.744Z,7.73
2018-03-16T22:25:18.314Z,6.67
2018-03-16T22:27:46.028Z,5.97
2018-03-16T22:30:13.857Z,6.67
2018-03-16T22:32:41.418Z,5.53
2018-03-16T22:35:09.193Z,5.83
2018-03-16T22:37:36.759Z,5.43
2018-03-16T22:40:04.632Z,7.23
2018-03-16T22:42:32.202Z,6.20
2018-03-16T22:44:59.750Z,9.37
2018-03-16T22:47:27.585Z,9.30
2018-03-16T22:49:55.138Z,6.73
2018-03-16T22:52:22.698Z,6.83
2018-03-16T22:54:50.298Z,6.30
2018-03-16T22:57:17.900Z,7.17
2018-03-16T22:59:45.474Z,11.17
2018-03-16T23:02:13.077Z,10.77
2018-03-16T23:04:40.687Z,7.87
2018-03-16T23:07:08.258Z,6.20
2018-03-16T23:09:36.010Z,16.07
2018-03-16T23:12:03.763Z,11.10
2018-03-16T23:14:31.322Z,16.33
2018-03-16T23:16:58.902Z,22.07
2018-03-16T23:19:26.474Z,23.03
2018-03-16T23:21:54.110Z,18.40
2018-03-16T23:24:21.857Z,12.27
2018-03-16T23:26:49.671Z,16.00
2018-03-16T23:29:17.491Z,10.90
2018-03-16T23:31:45.308Z,57.53
2018-03-16T23:34:12.917Z,18.70
2018-03-16T23:36:40.536Z,9.27
2018-03-16T23:39:08.262Z,8.00
2018-03-16T23:41:35.949Z,6.43
2018-03-16T23:44:03.799Z,9.37
2018-03-16T23:46:31.364Z,5.07
2018-03-16T23:48:58.930Z,12.67
2018-03-16T23:51:26.498Z,8.23
2018-03-16T23:53:54.064Z,7.20
2018-03-16T23:56:21.888Z,10.57
2018-03-16T23:58:49.460Z,13.33
